Time;durP1;ratioP1;P1;durP2;ratioP2;P2;SDS_P1;SDS_P2;PMS_P1;PMS_P2;Temp;Humidity;BMP_temperature;BMP_pressure;BME280_temperature;BME280_humidity;BME280_pressure;Samples;Min_cycle;Max_cycle;Signal;HPM_P1;HPM_P2
2023/10/12 00:02:05;;;;;;;1999.90;999.90;;;16.70;99.90;;;;;;4919000;29;20060;-72
2023/10/12 00:04:43;;;;;;;1999.90;999.90;;;16.70;99.90;;;;;;4918135;29;20058;-78
2023/10/12 00:07:15;;;;;;;1999.90;999.90;;;16.70;99.90;;;;;;4903203;29;20039;-78
2023/10/12 00:09:48;;;;;;;1999.90;999.90;;;16.80;99.90;;;;;;4892221;29;20032;-78
2023/10/12 00:12:24;;;;;;;1999.90;999.90;;;16.80;99.90;;;;;;4911373;29;20060;-71
2023/10/12 00:14:56;;;;;;;1999.90;999.90;;;16.80;99.90;;;;;;4918615;29;20161;-72
2023/10/12 00:17:43;;;;;;;1999.90;999.90;;;16.80;99.90;;;;;;4918976;29;20507;-78
2023/10/12 00:20:12;;;;;;;1999.90;999.90;;;16.90;99.90;;;;;;4918303;29;20036;-71
2023/10/12 00:22:37;;;;;;;1999.90;999.90;;;16.90;99.90;;;;;;4918853;29;20024;-78
2023/10/12 00:25:04;;;;;;;1999.90;999.90;;;16.80;99.90;;;;;;4918450;29;20036;-72
2023/10/12 00:27:30;;;;;;;1999.90;999.90;;;16.80;99.90;;;;;;4918740;29;20032;-71
2023/10/12 00:29:55;;;;;;;1999.90;999.90;;;16.70;99.90;;;;;;4918615;29;20495;-71
2023/10/12 00:32:21;;;;;;;1999.90;999.90;;;16.80;99.90;;;;;;4918724;29;20036;-78
2023/10/12 00:34:47;;;;;;;1999.90;999.90;;;16.80;99.90;;;;;;4918622;29;20028;-78
2023/10/12 00:37:14;;;;;;;1999.90;999.90;;;16.80;99.90;;;;;;4917468;29;20531;-72
2023/10/12 00:39:48;;;;;;;1999.90;999.90;;;16.90;99.90;;;;;;4918146;29;20048;-72
2023/10/12 00:42:17;;;;;;;1999.90;999.90;;;16.90;99.90;;;;;;4918421;29;20038;-78
2023/10/12 00:44:47;;;;;;;1999.90;999.90;;;16.80;99.90;;;;;;4928233;29;20071;-78
2023/10/12 00:47:19;;;;;;;1999.90;999.90;;;17.00;99.90;;;;;;4937193;29;20487;-78
2023/10/12 00:49:48;;;;;;;1999.90;999.90;;;17.00;99.90;;;;;;4937122;29;20027;-72
2023/10/12 00:52:26;;;;;;;1999.90;999.90;;;16.80;99.90;;;;;;4936693;29;20024;-72
2023/10/12 00:54:57;;;;;;;1999.90;999.90;;;16.70;99.90;;;;;;4936391;29;20035;-78
2023/10/12 00:57:23;;;;;;;1999.90;999.90;;;16.60;99.90;;;;;;4919900;29;20027;-78
2023/10/12 00:59:52;;;;;;;1999.90;999.90;;;16.50;99.90;;;;;;4939212;29;20106;-72
2023/10/12 01:02:23;;;;;;;1999.90;999.90;;;16.40;99.90;;;;;;4956083;29;20027;-71
2023/10/12 01:04:53;;;;;;;1999.90;999.90;;;16.40;99.90;;;;;;4956080;29;20109;-71
2023/10/12 01:07:25;;;;;;;1999.90;999.90;;;16.40;99.90;;;;;;4938815;29;20027;-78
2023/10/12 01:10:02;;;;;;;1999.90;999.90;;;16.30;99.90;;;;;;4936633;29;20059;-78
2023/10/12 01:12:31;;;;;;;1999.90;999.90;;;16.30;99.90;;;;;;4936630;29;20032;-78
2023/10/12 01:14:57;;;;;;;1999.90;999.90;;;16.40;99.90;;;;;;4919436;29;20033;-71
2023/10/12 01:17:29;;;;;;;1999.90;999.90;;;16.40;99.90;;;;;;4939117;29;20170;-72
2023/10/12 01:19:55;;;;;;;1999.90;999.90;;;16.30;99.90;;;;;;4936876;29;20039;-78
2023/10/12 01:22:27;;;;;;;1999.90;999.90;;;16.40;99.90;;;;;;4936544;29;20031;-78
2023/10/12 01:27:22;;;;;;;1999.90;999.90;;;16.40;99.90;;;;;;4936101;29;20083;-78
2023/10/12 01:29:48;;;;;;;1999.90;999.90;;;16.40;99.90;;;;;;4935674;29;20058;-71
2023/10/12 01:34:53;;;;;;;1999.90;999.90;;;16.40;99.90;;;;;;4936752;29;20028;-78
2023/10/12 01:37:26;;;;;;;1999.90;999.90;;;16.30;99.90;;;;;;4937980;29;20570;-78
2023/10/12 01:40:26;;;;;;;;;;;16.30;99.90;;;;;;4941444;29;20028;-78
2023/10/12 01:45:40;;;;;;;1999.90;999.90;;;16.30;99.90;;;;;;4948112;29;20047;-72
2023/10/12 01:48:16;;;;;;;1999.90;999.90;;;16.30;99.90;;;;;;4936629;29;20547;-77
2023/10/12 01:50:43;;;;;;;1999.90;999.90;;;16.40;99.90;;;;;;4918735;29;20048;-72
2023/10/12 01:53:25;;;;;;;1999.90;999.90;;;16.40;99.90;;;;;;4935633;29;20024;-78
2023/10/12 01:55:52;;;;;;;1999.90;999.90;;;16.40;99.90;;;;;;4936264;29;20047;-72
2023/10/12 01:58:27;;;;;;;1999.90;999.90;;;16.40;99.90;;;;;;4935956;29;20396;-72
2023/10/12 02:01:04;;;;;;;1999.90;999.90;;;16.30;99.90;;;;;;4929234;29;20376;-73
2023/10/12 02:05:58;;;;;;;1999.90;999.90;;;16.20;99.90;;;;;;4949101;29;20059;-71
2023/10/12 02:08:45;;;;;;;1999.90;999.90;;;16.10;99.90;;;;;;4934835;29;20031;-72
2023/10/12 02:13:47;;;;;;;1999.90;999.90;;;16.10;99.90;;;;;;4935994;29;20031;-79
2023/10/12 02:16:13;;;;;;;1999.90;999.90;;;16.10;99.90;;;;;;4935746;29;20045;-71
2023/10/12 02:18:40;;;;;;;1999.90;999.90;;;16.10;99.90;;;;;;4935161;29;20027;-78
2023/10/12 02:24:35;;;;;;;1999.90;999.90;;;16.00;99.90;;;;;;4935802;29;20031;-71
2023/10/12 02:26:34;;;;;;;1999.90;999.90;;;16.00;99.90;;;;;;4915015;29;20039;-71
2023/10/12 02:31:38;;;;;;;1999.90;999.90;;;16.20;99.90;;;;;;4935654;29;20020;-71
2023/10/12 02:34:14;;;;;;;1999.90;999.90;;;16.20;99.90;;;;;;4935510;29;20417;-71
2023/10/12 02:36:40;;;;;;;1999.90;999.90;;;16.30;99.90;;;;;;4918605;29;20499;-71
2023/10/12 02:39:15;;;;;;;1999.90;999.90;;;16.40;99.90;;;;;;4946644;29;20063;-71
2023/10/12 02:41:45;;;;;;;1999.90;999.90;;;16.40;99.90;;;;;;4935635;29;20373;-78
2023/10/12 02:44:19;;;;;;;1999.90;999.90;;;16.50;99.90;;;;;;4930069;29;20052;-78
2023/10/12 02:49:34;;;;;;;1999.90;999.90;;;16.40;99.90;;;;;;4916623;29;20047;-79
2023/10/12 02:52:05;;;;;;;1999.90;999.90;;;16.50;99.90;;;;;;4916291;29;20403;-78
2023/10/12 02:54:49;;;;;;;1999.90;999.90;;;16.50;99.90;;;;;;4916333;29;20058;-78
2023/10/12 02:57:17;;;;;;;1999.90;999.90;;;16.50;99.90;;;;;;4916344;29;20046;-78
2023/10/12 02:59:46;;;;;;;1999.90;999.90;;;16.50;99.90;;;;;;4904525;29;20038;-71
2023/10/12 03:02:22;;;;;;;1999.90;999.90;;;16.60;99.90;;;;;;4916404;29;20039;-71
2023/10/12 03:04:48;;;;;;;1999.90;999.90;;;16.70;99.90;;;;;;4916256;29;20032;-78
2023/10/12 03:07:22;;;;;;;1999.90;999.90;;;16.80;99.90;;;;;;4916121;29;20492;-78
2023/10/12 03:09:55;;;;;;;1999.90;999.90;;;16.80;99.90;;;;;;4914640;29;20484;-79
2023/10/12 03:12:23;;;;;;;1999.90;999.90;;;16.80;99.90;;;;;;4903357;29;20028;-71
2023/10/12 03:14:51;;;;;;;1999.90;999.90;;;16.70;99.90;;;;;;4897943;29;20493;-71
2023/10/12 03:17:18;;;;;;;1999.90;999.90;;;16.70;99.90;;;;;;4914502;29;20099;-78
2023/10/12 03:19:48;;;;;;;1999.90;999.90;;;16.60;99.90;;;;;;4918045;29;20032;-78
2023/10/12 03:22:25;;;;;;;1999.90;999.90;;;16.50;99.90;;;;;;4919799;29;20031;-78
2023/10/12 03:24:51;;;;;;;1999.90;999.90;;;16.50;99.90;;;;;;4919987;29;20035;-71
2023/10/12 03:27:17;;;;;;;1999.90;999.90;;;16.50;99.90;;;;;;4917427;29;20036;-71
2023/10/12 03:29:43;;;;;;;1999.90;999.90;;;16.50;99.90;;;;;;4919567;29;20032;-71
2023/10/12 03:32:16;;;;;;;1999.90;999.90;;;16.50;99.90;;;;;;4919541;29;20032;-79
2023/10/12 03:37:18;;;;;;;1999.90;999.90;;;16.40;99.90;;;;;;4918874;29;19918;-78
2023/10/12 03:44:57;;;;;;;1999.90;999.90;;;16.30;99.90;;;;;;4937332;29;20051;-78
2023/10/12 03:52:18;;;;;;;1999.90;999.90;;;16.40;99.90;;;;;;4955218;29;20049;-71
2023/10/12 03:55:15;;;;;;;1999.90;999.90;;;16.50;99.90;;;;;;4919276;29;20021;-71
2023/10/12 03:57:59;;;;;;;1999.90;999.90;;;16.50;99.90;;;;;;4917538;29;20115;-79
2023/10/12 04:00:26;;;;;;;1999.90;999.90;;;16.50;99.90;;;;;;4932488;29;20098;-71
2023/10/12 04:05:21;;;;;;;1999.90;999.90;;;16.40;99.90;;;;;;4947550;29;20047;-71
2023/10/12 04:08:18;;;;;;;1999.90;999.90;;;16.40;99.90;;;;;;4954022;29;20032;-71
2023/10/12 04:19:03;;;;;;;1999.90;999.90;;;16.40;99.90;;;;;;4928959;29;20035;-72
2023/10/12 04:21:33;;;;;;;1999.90;999.90;;;16.40;99.90;;;;;;4937482;29;20496;-71
2023/10/12 04:29:08;;;;;;;1999.90;999.90;;;16.50;99.90;;;;;;4937443;29;20067;-79
2023/10/12 04:31:34;;;;;;;1999.90;999.90;;;16.40;99.90;;;;;;4936835;29;20026;-72
2023/10/12 04:39:26;;;;;;;1999.90;999.90;;;16.50;99.90;;;;;;4915734;29;20043;-78
2023/10/12 04:47:04;;;;;;;1999.90;999.90;;;16.50;99.90;;;;;;4956572;29;20569;-71
2023/10/12 04:54:28;;;;;;;1999.90;999.90;;;16.50;99.90;;;;;;4937289;29;20032;-79
2023/10/12 04:57:11;;;;;;;1999.90;999.90;;;16.50;99.90;;;;;;4937159;29;20035;-71
2023/10/12 04:59:50;;;;;;;1999.90;999.90;;;16.50;99.90;;;;;;4936671;29;20035;-71
2023/10/12 05:02:28;;;;;;;1999.90;999.90;;;16.50;99.90;;;;;;4927847;29;20019;-79
2023/10/12 05:09:49;;;;;;;1999.90;999.90;;;16.60;99.90;;;;;;4945394;29;20038;-71
2023/10/12 05:12:18;;;;;;;1999.90;999.90;;;16.60;99.90;;;;;;4926847;29;20024;-71
2023/10/12 05:14:44;;;;;;;1999.90;999.90;;;16.70;99.90;;;;;;4936469;29;20028;-72
2023/10/12 05:17:10;;;;;;;1999.90;999.90;;;16.60;99.90;;;;;;4936513;29;20090;-79
2023/10/12 05:19:36;;;;;;;1999.90;999.90;;;16.50;99.90;;;;;;4936858;29;20042;-80
2023/10/12 05:22:02;;;;;;;1999.90;999.90;;;16.50;99.90;;;;;;4936282;29;20469;-79
2023/10/12 05:24:28;;;;;;;1999.90;999.90;;;16.40;99.90;;;;;;4936510;29;20031;-71
2023/10/12 05:26:58;;;;;;;1999.90;999.90;;;16.40;99.90;;;;;;4936475;29;20092;-80
2023/10/12 05:32:05;;;;;;;1999.90;999.90;;;16.30;99.90;;;;;;4936353;29;20032;-80
2023/10/12 05:37:16;;;;;;;1999.90;999.90;;;16.20;99.90;;;;;;4937042;29;20016;-72
2023/10/12 05:39:46;;;;;;;1999.90;999.90;;;16.30;99.90;;;;;;4932908;29;20038;-73
2023/10/12 05:42:15;;;;;;;1999.90;999.90;;;16.30;99.90;;;;;;4954386;28;20446;-79
2023/10/12 05:44:43;;;;;;;1999.90;999.90;;;16.30;99.90;;;;;;4920586;29;20080;-72
2023/10/12 05:47:12;;;;;;;1999.90;999.90;;;16.40;99.90;;;;;;4898097;29;20036;-71
2023/10/12 05:49:41;;;;;;;1999.90;999.90;;;16.40;99.90;;;;;;4907641;29;20037;-71
2023/10/12 05:52:08;;;;;;;1999.90;999.90;;;16.30;99.90;;;;;;4896621;29;20768;-71
2023/10/12 05:54:35;;;;;;;1999.90;999.90;;;16.30;99.90;;;;;;4907995;29;20058;-80
2023/10/12 05:57:19;;;;;;;1999.90;999.90;;;16.30;99.90;;;;;;4916613;29;20060;-72
2023/10/12 05:59:46;;;;;;;1999.90;999.90;;;16.30;99.90;;;;;;4924683;29;20043;-73
2023/10/12 06:02:13;;;;;;;1999.90;999.90;;;16.30;99.90;;;;;;4898296;29;20033;-72
2023/10/12 06:04:39;;;;;;;1999.90;999.90;;;16.30;99.90;;;;;;4916050;29;20065;-72
2023/10/12 06:07:05;;;;;;;1999.90;999.90;;;16.40;99.90;;;;;;4915768;29;20064;-80
2023/10/12 06:09:37;;;;;;;1999.90;999.90;;;16.40;99.90;;;;;;4915321;29;20032;-80
2023/10/12 06:12:08;;;;;;;1999.90;999.90;;;16.40;99.90;;;;;;4910634;29;20032;-73
2023/10/12 06:14:35;;;;;;;1999.90;999.90;;;16.40;99.90;;;;;;4913921;29;20060;-72
2023/10/12 06:17:02;;;;;;;1999.90;999.90;;;16.50;99.90;;;;;;4902787;29;20056;-72
2023/10/12 06:19:34;;;;;;;1999.90;999.90;;;16.50;99.90;;;;;;4918857;29;20087;-72
2023/10/12 06:22:13;;;;;;;1999.90;999.90;;;16.50;99.90;;;;;;4915653;29;20062;-80
2023/10/12 06:24:43;;;;;;;1999.90;999.90;;;16.50;99.90;;;;;;4912289;29;20508;-80
2023/10/12 06:27:22;;;;;;;1999.90;999.90;;;16.60;99.90;;;;;;4898131;29;20476;-79
2023/10/12 06:29:50;;;;;;;1999.90;999.90;;;16.60;99.90;;;;;;4903187;29;20028;-73
2023/10/12 06:32:34;;;;;;;1999.90;999.90;;;16.60;99.90;;;;;;4898289;29;20114;-72
2023/10/12 06:45:46;;;;;;;1999.90;999.90;;;16.50;99.90;;;;;;4913074;29;20139;-72
2023/10/12 06:51:02;;;;;;;1999.90;999.90;;;16.50;99.90;;;;;;4912731;29;20032;-73
2023/10/12 06:53:35;;;;;;;1999.90;999.90;;;16.60;99.90;;;;;;4913444;29;20036;-80
2023/10/12 06:56:16;;;;;;;1999.90;999.90;;;16.60;99.90;;;;;;4893755;29;20074;-72
2023/10/12 06:59:20;;;;;;;1999.90;999.90;;;16.60;99.90;;;;;;4914379;29;20032;-80
2023/10/12 07:04:27;;;;;;;1999.90;999.90;;;16.70;99.90;;;;;;4910520;29;20432;-78
2023/10/12 07:06:56;;;;;;;1999.90;999.90;;;16.70;99.90;;;;;;4911866;29;20020;-72
2023/10/12 07:09:44;;;;;;;1999.90;999.90;;;16.70;99.90;;;;;;4903301;29;20040;-72
2023/10/12 07:12:11;;;;;;;1999.90;999.90;;;16.80;99.90;;;;;;4912498;29;20452;-72
2023/10/12 07:14:43;;;;;;;1999.90;999.90;;;16.90;99.90;;;;;;4902098;29;20107;-80
2023/10/12 07:17:09;;;;;;;1999.90;999.90;;;16.90;99.90;;;;;;4904554;29;20031;-72
2023/10/12 07:19:39;;;;;;;1999.90;999.90;;;17.00;99.90;;;;;;4914612;29;20074;-79
2023/10/12 07:22:08;;;;;;;1999.90;999.90;;;17.00;99.90;;;;;;4916063;29;20120;-72
2023/10/12 07:24:38;;;;;;;1999.90;999.90;;;16.90;99.90;;;;;;4886538;29;20033;-73
2023/10/12 07:27:11;;;;;;;1999.90;999.90;;;17.00;99.90;;;;;;4899336;29;20036;-71
2023/10/12 07:29:44;;;;;;;1999.90;999.90;;;17.00;99.90;;;;;;4900639;29;20091;-78
2023/10/12 07:32:31;;;;;;;1999.90;999.90;;;17.10;99.90;;;;;;4909321;29;20111;-72
2023/10/12 07:35:05;;;;;;;1999.90;999.90;;;17.30;99.90;;;;;;4910014;29;20040;-74
2023/10/12 07:37:31;;;;;;;1999.90;999.90;;;17.40;99.90;;;;;;4912652;29;20028;-80
2023/10/12 07:40:12;;;;;;;1999.90;999.90;;;17.40;99.90;;;;;;4911538;29;20118;-79
2023/10/12 07:42:40;;;;;;;1999.90;999.90;;;17.50;99.90;;;;;;4911842;29;20032;-73
2023/10/12 07:45:06;;;;;;;1999.90;999.90;;;17.60;99.90;;;;;;4925046;29;20043;-76
2023/10/12 07:47:39;;;;;;;1999.90;999.90;;;17.70;99.90;;;;;;4930890;29;20043;-72
2023/10/12 07:50:09;;;;;;;1999.90;999.90;;;17.70;99.90;;;;;;4931555;29;20491;-72
2023/10/12 07:55:06;;;;;;;1999.90;999.90;;;17.60;99.90;;;;;;4927211;29;20024;-78
2023/10/12 07:57:36;;;;;;;1999.90;999.90;;;17.70;99.90;;;;;;4951215;29;20127;-80
2023/10/12 08:05:43;;;;;;;1999.90;999.90;;;18.20;99.90;;;;;;4917846;29;20039;-79
2023/10/12 08:13:16;;;;;;;1999.90;999.90;;;18.30;99.90;;;;;;4931064;29;20027;-73
2023/10/12 08:21:30;;;;;;;1999.90;999.90;;;18.60;99.90;;;;;;4926252;29;20039;-80
2023/10/12 08:24:10;;;;;;;1999.90;999.90;;;18.70;99.90;;;;;;4932052;29;20043;-79
2023/10/12 08:39:37;;;;;;;1999.90;999.90;;;20.40;99.90;;;;;;4927546;29;20058;-73
2023/10/12 08:44:53;;;;;;;1999.90;999.90;;;21.50;99.90;;;;;;4907415;29;20135;-74
2023/10/12 08:47:26;;;;;;;1999.90;999.90;;;21.70;99.90;;;;;;4896492;29;20040;-80
2023/10/12 08:49:53;;;;;;;1999.90;999.90;;;22.10;99.90;;;;;;4896764;29;20063;-79
2023/10/12 08:52:28;;;;;;;1999.90;999.90;;;22.30;99.90;;;;;;4897096;29;20492;-74
2023/10/12 08:55:03;;;;;;;1999.90;999.90;;;22.80;99.90;;;;;;4914335;29;20032;-80
2023/10/12 08:57:55;;;;;;;1999.90;999.90;;;23.10;99.90;;;;;;4915142;29;20618;-79
2023/10/12 09:06:00;;;;;;;1999.90;999.90;;;23.90;99.90;;;;;;4884542;29;20127;-73
2023/10/12 09:10:56;;;;;;;1999.90;999.90;;;23.40;99.90;;;;;;4909023;29;20053;-80
2023/10/12 09:13:24;;;;;;;1999.90;999.90;;;23.50;99.90;;;;;;4900729;29;20334;-79
2023/10/12 09:15:59;;;;;;;1999.90;999.90;;;24.00;99.90;;;;;;4910343;29;20373;-80
2023/10/12 09:18:35;;;;;;;1999.90;999.90;;;23.90;99.90;;;;;;4901691;29;20032;-72
2023/10/12 09:23:46;;;;;;;1999.90;999.90;;;22.90;99.90;;;;;;4909260;29;20039;-73
2023/10/12 09:26:15;;;;;;;1999.90;999.90;;;22.80;99.90;;;;;;4913813;29;20102;-80
2023/10/12 09:31:14;;;;;;;1999.90;999.90;;;22.80;99.90;;;;;;4905147;29;20546;-72
2023/10/12 09:36:28;;;;;;;1999.90;999.90;;;22.40;99.90;;;;;;4900573;29;20073;-72
2023/10/12 09:39:00;;;;;;;1999.90;999.90;;;22.50;99.90;;;;;;4910010;29;20084;-79
2023/10/12 09:41:32;;;;;;;1999.90;999.90;;;22.90;99.90;;;;;;4900483;29;20024;-79
2023/10/12 09:44:04;;;;;;;1999.90;999.90;;;23.00;99.90;;;;;;4895325;29;20032;-78
2023/10/12 09:46:32;;;;;;;1999.90;999.90;;;23.20;99.90;;;;;;4879685;29;20044;-79
2023/10/12 09:49:14;;;;;;;1999.90;999.90;;;23.20;99.90;;;;;;4899466;29;20047;-78
2023/10/12 09:51:45;;;;;;;1999.90;999.90;;;23.30;99.90;;;;;;4887204;29;20127;-75
2023/10/12 09:54:18;;;;;;;1999.90;999.90;;;23.30;99.90;;;;;;4896674;29;20029;-78
2023/10/12 09:56:57;;;;;;;1999.90;999.90;;;23.20;99.90;;;;;;4895773;29;20028;-72
2023/10/12 09:59:23;;;;;;;1999.90;999.90;;;23.30;99.90;;;;;;4895524;29;20484;-73
2023/10/12 10:01:50;;;;;;;1999.90;999.90;;;23.30;99.90;;;;;;4899318;29;20024;-78
2023/10/12 10:09:38;;;;;;;1999.90;999.90;;;23.50;99.90;;;;;;4904698;29;20037;-72
2023/10/12 10:12:08;;;;;;;1999.90;999.90;;;23.60;99.90;;;;;;4902031;29;20031;-73
2023/10/12 10:14:36;;;;;;;1999.90;999.90;;;23.90;99.90;;;;;;4909860;29;20028;-77
2023/10/12 10:17:02;;;;;;;1999.90;999.90;;;23.80;99.90;;;;;;4904008;29;20016;-76
2023/10/12 10:19:32;;;;;;;1999.90;999.90;;;23.80;99.90;;;;;;4895751;29;20052;-79
2023/10/12 10:22:37;;;;;;;1999.90;999.90;;;23.70;99.90;;;;;;4897719;29;20028;-73
2023/10/12 10:24:57;;;;;;;1999.90;999.90;;;23.60;99.90;;;;;;4909754;29;20143;-72
2023/10/12 10:27:34;;;;;;;1999.90;999.90;;;23.50;99.90;;;;;;4912214;29;20503;-78
2023/10/12 10:30:25;;;;;;;1999.90;999.90;;;23.80;99.90;;;;;;4912513;29;20197;-79
2023/10/12 10:33:07;;;;;;;1999.90;999.90;;;23.90;99.90;;;;;;4886088;29;20027;-76
2023/10/12 10:35:57;;;;;;;1999.90;999.90;;;23.80;99.90;;;;;;4904996;29;20556;-79
2023/10/12 10:38:32;;;;;;;1999.90;999.90;;;23.90;99.90;;;;;;4894172;29;20067;-72
2023/10/12 10:41:18;;;;;;;1999.90;999.90;;;24.00;99.90;;;;;;4910642;29;20025;-79
2023/10/12 10:43:44;;;;;;;1999.90;999.90;;;24.30;99.90;;;;;;4907197;29;20040;-73
2023/10/12 10:46:10;;;;;;;1999.90;999.90;;;24.60;99.90;;;;;;4911234;29;20048;-79
2023/10/12 10:48:38;;;;;;;1999.90;999.90;;;24.40;99.90;;;;;;4911641;29;20389;-72
2023/10/12 10:51:11;;;;;;;1999.90;999.90;;;24.20;99.90;;;;;;4908042;29;20020;-73
2023/10/12 10:53:40;;;;;;;1999.90;999.90;;;24.20;99.90;;;;;;4891111;29;20039;-78
2023/10/12 10:56:16;;;;;;;1999.90;999.90;;;24.20;99.90;;;;;;4905797;29;20020;-79
2023/10/12 10:58:46;;;;;;;1999.90;999.90;;;24.10;99.90;;;;;;4911655;29;20039;-78
2023/10/12 11:01:14;;;;;;;1999.90;999.90;;;24.00;99.90;;;;;;4894144;29;20036;-72
2023/10/12 11:03:40;;;;;;;1999.90;999.90;;;24.00;99.90;;;;;;4910767;29;20059;-73
2023/10/12 11:06:21;;;;;;;1999.90;999.90;;;24.00;99.90;;;;;;4908337;29;20484;-79
2023/10/12 11:08:53;;;;;;;1999.90;999.90;;;23.90;99.90;;;;;;4909783;29;20028;-76
2023/10/12 11:11:37;;;;;;;1999.90;999.90;;;23.90;99.90;;;;;;4905874;29;20032;-72
2023/10/12 11:14:08;;;;;;;1999.90;999.90;;;23.80;99.90;;;;;;4905074;29;20130;-73
2023/10/12 11:16:36;;;;;;;1999.90;999.90;;;23.70;99.90;;;;;;4902454;29;20032;-72
2023/10/12 11:19:03;;;;;;;1999.90;999.90;;;23.80;99.90;;;;;;4907710;29;20457;-78
2023/10/12 11:21:29;;;;;;;1999.90;999.90;;;23.80;99.90;;;;;;4895463;29;20480;-78
2023/10/12 11:24:09;;;;;;;1999.90;999.90;;;23.80;99.90;;;;;;4898090;29;20032;-72
2023/10/12 11:26:51;;;;;;;1999.90;999.90;;;23.70;99.90;;;;;;4895561;29;20477;-72
2023/10/12 11:29:17;;;;;;;1999.90;999.90;;;23.60;99.90;;;;;;4908758;29;20024;-71
2023/10/12 11:31:46;;;;;;;1999.90;999.90;;;23.40;99.90;;;;;;4910820;29;20083;-72
2023/10/12 11:34:23;;;;;;;1999.90;999.90;;;23.40;99.90;;;;;;4907655;29;20032;-79
2023/10/12 11:36:57;;;;;;;1999.90;999.90;;;23.50;99.90;;;;;;4895514;29;20048;-72
2023/10/12 11:39:28;;;;;;;1999.90;999.90;;;23.50;99.90;;;;;;4907479;29;20479;-78
2023/10/12 11:42:07;;;;;;;1999.90;999.90;;;23.50;99.90;;;;;;4915935;29;20103;-71
2023/10/12 11:44:35;;;;;;;1999.90;999.90;;;23.60;99.90;;;;;;4900103;29;20066;-78
2023/10/12 11:47:02;;;;;;;1999.90;999.90;;;23.60;99.90;;;;;;4904701;29;20037;-79
2023/10/12 11:49:32;;;;;;;1999.90;999.90;;;23.50;99.90;;;;;;4907784;29;20032;-79
2023/10/12 11:52:01;;;;;;;1999.90;999.90;;;23.30;99.90;;;;;;4907725;29;20037;-78
2023/10/12 11:54:33;;;;;;;1999.90;999.90;;;23.20;99.90;;;;;;4910895;29;20504;-79
2023/10/12 11:56:59;;;;;;;1999.90;999.90;;;23.20;99.90;;;;;;4914739;29;20028;-72
2023/10/12 11:59:31;;;;;;;1999.90;999.90;;;23.40;99.90;;;;;;4915734;29;20024;-78
2023/10/12 12:02:08;;;;;;;1999.90;999.90;;;23.70;99.90;;;;;;4900460;29;20028;-77
2023/10/12 12:04:40;;;;;;;1999.90;999.90;;;24.10;99.90;;;;;;4897522;29;20073;-78
2023/10/12 12:07:10;;;;;;;1999.90;999.90;;;24.30;99.90;;;;;;4913463;29;20032;-72
2023/10/12 12:09:39;;;;;;;1999.90;999.90;;;24.60;99.90;;;;;;4904940;29;20029;-71
2023/10/12 12:12:10;;;;;;;1999.90;999.90;;;24.80;99.90;;;;;;4908102;29;20440;-72
2023/10/12 12:14:35;;;;;;;1999.90;999.90;;;24.80;99.90;;;;;;4908592;29;20544;-78
2023/10/12 12:17:01;;;;;;;1999.90;999.90;;;25.20;99.90;;;;;;4899345;29;20104;-78
2023/10/12 12:19:27;;;;;;;1999.90;999.90;;;25.50;99.90;;;;;;4910041;29;20036;-72
2023/10/12 12:21:53;;;;;;;1999.90;999.90;;;25.40;99.90;;;;;;4911998;29;20107;-72
2023/10/12 12:26:52;;;;;;;1999.90;999.90;;;25.70;99.90;;;;;;4915069;29;20024;-78
2023/10/12 12:29:22;;;;;;;1999.90;999.90;;;25.80;99.90;;;;;;4915302;29;20032;-79
2023/10/12 12:31:49;;;;;;;1999.90;999.90;;;26.00;99.90;;;;;;4914177;29;20028;-72
2023/10/12 12:34:34;;;;;;;1999.90;999.90;;;25.70;99.90;;;;;;4915152;29;20035;-79
2023/10/12 12:37:04;;;;;;;1999.90;999.90;;;25.80;99.90;;;;;;4913641;29;20091;-79
2023/10/12 12:39:33;;;;;;;1999.90;999.90;;;26.00;99.90;;;;;;4914930;29;20063;-77
2023/10/12 12:41:58;;;;;;;1999.90;999.90;;;26.20;99.90;;;;;;4912610;29;20028;-78
2023/10/12 12:44:24;;;;;;;1999.90;999.90;;;26.30;99.90;;;;;;4913970;29;20048;-79
2023/10/12 12:46:49;;;;;;;1999.90;999.90;;;26.20;99.90;;;;;;4913782;29;20055;-77
2023/10/12 12:49:15;;;;;;;1999.90;999.90;;;26.20;99.90;;;;;;4913706;29;20519;-81
2023/10/12 12:51:41;;;;;;;1999.90;999.90;;;26.20;99.90;;;;;;4906904;29;20469;-77
2023/10/12 12:54:07;;;;;;;1999.90;999.90;;;26.20;99.90;;;;;;4911949;29;20134;-80
2023/10/12 12:56:32;;;;;;;1999.90;999.90;;;26.10;99.90;;;;;;4914168;29;20058;-81
2023/10/12 12:58:59;;;;;;;1999.90;999.90;;;26.10;99.90;;;;;;4914138;29;20055;-72
2023/10/12 13:01:27;;;;;;;1999.90;999.90;;;26.10;99.90;;;;;;4901794;29;20373;-72
2023/10/12 13:03:56;;;;;;;1999.90;999.90;;;26.00;99.90;;;;;;4904241;29;20041;-78
2023/10/12 13:06:22;;;;;;;1999.90;999.90;;;25.90;99.90;;;;;;4900128;29;20035;-73
2023/10/12 13:08:48;;;;;;;1999.90;999.90;;;25.90;99.90;;;;;;4898285;29;20046;-79
2023/10/12 13:11:21;;;;;;;1999.90;999.90;;;26.10;99.90;;;;;;4909341;29;20532;-79
2023/10/12 13:13:50;;;;;;;1999.90;999.90;;;25.90;99.90;;;;;;4895877;29;20036;-79
2023/10/12 13:16:16;;;;;;;1999.90;999.90;;;25.90;99.90;;;;;;4909415;29;20028;-80
2023/10/12 13:18:46;;;;;;;1999.90;999.90;;;26.10;99.90;;;;;;4909566;29;20484;-79
2023/10/12 13:21:16;;;;;;;1999.90;999.90;;;26.10;99.90;;;;;;4913077;29;20036;-80
2023/10/12 13:23:43;;;;;;;1999.90;999.90;;;26.20;99.90;;;;;;4911304;29;20039;-74
2023/10/12 13:26:10;;;;;;;1999.90;999.90;;;26.30;99.90;;;;;;4913966;29;20032;-80
2023/10/12 13:28:38;;;;;;;1999.90;999.90;;;26.30;99.90;;;;;;4911071;29;20036;-80
2023/10/12 13:31:05;;;;;;;1999.90;999.90;;;26.20;99.90;;;;;;4902530;29;20028;-79
2023/10/12 13:33:31;;;;;;;1999.90;999.90;;;26.20;99.90;;;;;;4903713;29;20047;-74
2023/10/12 13:35:58;;;;;;;1999.90;999.90;;;26.10;99.90;;;;;;4903692;29;20032;-80
2023/10/12 13:38:24;;;;;;;1999.90;999.90;;;26.00;99.90;;;;;;4908028;29;20347;-81
2023/10/12 13:40:50;;;;;;;1999.90;999.90;;;25.90;99.90;;;;;;4912802;29;20088;-74
2023/10/12 13:43:26;;;;;;;1999.90;999.90;;;26.10;99.90;;;;;;4902258;29;20032;-78
2023/10/12 13:45:54;;;;;;;1999.90;999.90;;;26.40;99.90;;;;;;4927535;29;20129;-81
2023/10/12 13:48:25;;;;;;;1999.90;999.90;;;26.40;99.90;;;;;;4924208;29;20534;-80
2023/10/12 13:51:04;;;;;;;1999.90;999.90;;;26.40;99.90;;;;;;4928301;29;20113;-74
2023/10/12 13:53:35;;;;;;;1999.90;999.90;;;26.50;99.90;;;;;;4917156;29;20035;-77
2023/10/12 13:56:04;;;;;;;1999.90;999.90;;;26.40;99.90;;;;;;4914551;29;20146;-81
2023/10/12 13:58:32;;;;;;;1999.90;999.90;;;26.50;99.90;;;;;;4915131;29;20095;-80
2023/10/12 14:01:01;;;;;;;1999.90;999.90;;;26.70;99.90;;;;;;4917135;29;20024;-76
2023/10/12 14:03:34;;;;;;;1999.90;999.90;;;26.60;99.90;;;;;;4913290;29;20060;-73
2023/10/12 14:06:01;;;;;;;1999.90;999.90;;;26.50;99.90;;;;;;4913989;29;20036;-75
2023/10/12 14:08:28;;;;;;;1999.90;999.90;;;26.40;99.90;;;;;;4930393;29;20046;-74
2023/10/12 14:10:57;;;;;;;1999.90;999.90;;;26.40;99.90;;;;;;4915719;29;20036;-80
2023/10/12 14:13:22;;;;;;;1999.90;999.90;;;26.30;99.90;;;;;;4915801;29;20091;-79
2023/10/12 14:15:48;;;;;;;1999.90;999.90;;;26.20;99.90;;;;;;4922718;29;20031;-74
2023/10/12 14:18:17;;;;;;;1999.90;999.90;;;26.10;99.90;;;;;;4932480;29;20096;-74
2023/10/12 14:20:46;;;;;;;1999.90;999.90;;;26.40;99.90;;;;;;4932367;29;20031;-80
2023/10/12 14:23:13;;;;;;;1999.90;999.90;;;26.50;99.90;;;;;;4926430;29;20027;-74
2023/10/12 14:25:50;;;;;;;1999.90;999.90;;;26.50;99.90;;;;;;4936075;29;20082;-80
2023/10/12 14:28:17;;;;;;;1999.90;999.90;;;26.70;99.90;;;;;;4929797;29;20613;-80
2023/10/12 14:30:47;;;;;;;1999.90;999.90;;;26.60;99.90;;;;;;4937007;29;20028;-74
2023/10/12 14:33:15;;;;;;;1999.90;999.90;;;26.50;99.90;;;;;;4933047;29;20526;-80
2023/10/12 14:35:42;;;;;;;1999.90;999.90;;;26.30;99.90;;;;;;4951716;29;20031;-80
2023/10/12 14:38:13;;;;;;;1999.90;999.90;;;26.60;99.90;;;;;;4927164;29;20031;-74
2023/10/12 14:40:40;;;;;;;1999.90;999.90;;;26.50;99.90;;;;;;4933843;29;20035;-80
2023/10/12 14:43:10;;;;;;;1999.90;999.90;;;26.40;99.90;;;;;;4921694;29;20274;-74
2023/10/12 14:45:58;;;;;;;1999.90;999.90;;;26.60;99.90;;;;;;4894336;29;20056;-74
2023/10/12 14:48:25;;;;;;;1999.90;999.90;;;27.00;99.90;;;;;;4913833;29;20107;-80